Time;durP1;ratioP1;P1;durP2;ratioP2;P2;SDS_P1;SDS_P2;PMS_P1;PMS_P2;Temp;Humidity;BMP_temperature;BMP_pressure;BME280_temperature;BME280_humidity;BME280_pressure;Samples;Min_cycle;Max_cycle;Signal;HPM_P1;HPM_P2
2021/05/15 00:02:07;;;;;;;2.10;1.67;;;13.60;50.90;;;;;;6194638;23;20416;-91
2021/05/15 00:04:33;;;;;;;1.40;1.30;;;13.50;51.00;;;;;;6192544;23;20154;-90
2021/05/15 00:06:58;;;;;;;1.77;1.40;;;13.40;51.00;;;;;;6193140;23;20508;-91
2021/05/15 00:09:24;;;;;;;1.80;1.70;;;13.50;51.10;;;;;;6193618;23;20602;-90
2021/05/15 00:11:50;;;;;;;2.07;1.50;;;13.40;51.10;;;;;;6193598;23;20264;-90
2021/05/15 00:14:16;;;;;;;1.47;1.20;;;13.60;51.30;;;;;;6238063;23;20431;-89
2021/05/15 00:17:01;;;;;;;1.87;1.30;;;13.40;51.30;;;;;;6247730;23;20150;-91
2021/05/15 00:19:27;;;;;;;3.00;1.40;;;13.40;51.20;;;;;;6247357;23;20164;-90
2021/05/15 00:21:52;;;;;;;6.00;2.60;;;13.30;51.10;;;;;;6247812;23;20894;-90
2021/05/15 00:27:49;;;;;;;1.90;1.80;;;13.40;51.40;;;;;;6249717;23;20136;-90
2021/05/15 00:30:17;;;;;;;1.50;1.40;;;13.60;51.80;;;;;;6247590;23;20430;-90
2021/05/15 00:33:06;;;;;;;1.50;1.40;;;13.60;51.70;;;;;;6247463;23;20385;-92
2021/05/15 00:35:32;;;;;;;1.90;1.40;;;13.20;51.10;;;;;;6248522;23;20573;-91
2021/05/15 00:38:25;;;;;;;2.37;1.70;;;13.40;50.90;;;;;;6247487;23;20435;-91
2021/05/15 00:40:50;;;;;;;1.97;1.70;;;13.20;50.40;;;;;;6247859;23;20158;-91
2021/05/15 00:43:23;;;;;;;1.80;1.60;;;13.10;50.20;;;;;;6247081;23;20749;-91
2021/05/15 00:45:49;;;;;;;1.50;1.40;;;13.10;50.10;;;;;;6247515;23;20150;-90
2021/05/15 00:48:15;;;;;;;4.07;2.00;;;13.20;50.00;;;;;;6247760;23;20157;-91
2021/05/15 00:50:41;;;;;;;4.20;1.43;;;13.10;50.20;;;;;;6249609;22;20408;-91
2021/05/15 00:53:46;;;;;;;3.50;1.50;;;13.10;50.60;;;;;;6247826;23;20171;-91
2021/05/15 00:56:12;;;;;;;1.80;1.40;;;13.00;50.70;;;;;;6247687;23;20152;-91
2021/05/15 00:58:42;;;;;;;2.00;1.90;;;12.90;50.80;;;;;;6247290;23;20148;-91
2021/05/15 01:01:08;;;;;;;2.47;1.63;;;12.80;51.00;;;;;;6247236;23;20229;-91
2021/05/15 01:04:10;;;;;;;2.30;2.17;;;12.80;51.70;;;;;;6247469;23;20730;-91
2021/05/15 01:06:38;;;;;;;3.88;1.98;;;12.90;52.00;;;;;;6247435;23;20152;-90
2021/05/15 01:09:06;;;;;;;1.63;1.52;;;12.60;52.50;;;;;;6247169;23;20236;-90
2021/05/15 01:11:34;;;;;;;1.60;1.50;;;12.60;52.20;;;;;;6247240;23;20225;-91
2021/05/15 01:14:01;;;;;;;2.25;2.05;;;12.40;51.90;;;;;;6247066;23;20193;-91
2021/05/15 01:16:35;;;;;;;2.25;1.58;;;12.50;51.60;;;;;;6247534;23;20146;-91
2021/05/15 01:19:03;;;;;;;1.20;1.10;;;12.50;51.00;;;;;;6249046;23;20153;-91
2021/05/15 01:21:48;;;;;;;2.17;1.58;;;12.50;51.70;;;;;;6248814;23;20150;-91
2021/05/15 01:24:13;;;;;;;1.58;1.48;;;12.70;51.00;;;;;;6248538;23;20188;-91
2021/05/15 01:26:39;;;;;;;2.73;1.60;;;12.20;50.70;;;;;;6249678;23;20158;-91
2021/05/15 01:29:08;;;;;;;1.37;1.27;;;12.30;51.10;;;;;;6249036;23;20235;-91
2021/05/15 01:31:35;;;;;;;2.00;1.58;;;12.20;51.00;;;;;;6249836;23;20148;-91
2021/05/15 01:34:03;;;;;;;2.83;1.05;;;12.30;50.90;;;;;;6248655;23;20203;-91
2021/05/15 01:36:39;;;;;;;2.35;1.52;;;12.20;51.20;;;;;;6249071;23;20621;-90
2021/05/15 01:39:15;;;;;;;1.10;1.00;;;12.00;51.70;;;;;;6249612;23;20204;-91
2021/05/15 01:41:41;;;;;;;1.10;0.98;;;12.00;51.90;;;;;;6249640;23;20153;-90
2021/05/15 01:44:18;;;;;;;1.20;1.10;;;12.10;51.80;;;;;;6250892;22;20139;-92
2021/05/15 01:46:44;;;;;;;1.75;1.10;;;11.80;52.00;;;;;;6249352;23;20216;-90
2021/05/15 01:49:10;;;;;;;1.40;1.30;;;12.20;52.30;;;;;;6249847;23;20220;-91
2021/05/15 01:51:36;;;;;;;2.25;1.55;;;11.80;52.60;;;;;;6249478;23;20181;-91
2021/05/15 01:54:20;;;;;;;1.73;1.20;;;11.70;54.40;;;;;;6249797;23;20141;-91
2021/05/15 01:56:46;;;;;;;1.67;1.58;;;11.70;54.00;;;;;;6249826;23;20703;-90
2021/05/15 01:59:40;;;;;;;1.40;1.20;;;11.70;53.20;;;;;;6249231;23;20142;-90
2021/05/15 02:02:06;;;;;;;1.30;1.15;;;11.80;52.70;;;;;;6249063;23;20156;-91
2021/05/15 02:04:31;;;;;;;2.20;1.50;;;11.70;52.50;;;;;;6249730;23;20584;-91
2021/05/15 02:06:57;;;;;;;1.80;1.60;;;11.90;52.60;;;;;;6251181;23;20146;-91
2021/05/15 02:09:33;;;;;;;1.53;1.43;;;11.80;52.70;;;;;;6248955;23;20451;-91
2021/05/15 02:11:59;;;;;;;8.02;1.70;;;11.80;52.70;;;;;;6248872;23;20372;-91
2021/05/15 02:14:25;;;;;;;1.60;1.50;;;11.90;52.90;;;;;;6246515;23;20256;-91
2021/05/15 02:17:04;;;;;;;1.30;1.10;;;12.10;53.10;;;;;;6249875;23;20165;-90
2021/05/15 02:19:29;;;;;;;4.65;1.60;;;11.90;52.90;;;;;;6249736;23;20149;-92
2021/05/15 02:22:08;;;;;;;1.43;1.30;;;11.90;52.60;;;;;;6249124;23;20232;-92
2021/05/15 02:24:34;;;;;;;1.77;1.20;;;11.60;52.10;;;;;;6248607;23;20480;-92
2021/05/15 02:27:17;;;;;;;1.77;1.40;;;11.80;52.40;;;;;;6248465;23;20192;-93
2021/05/15 02:29:43;;;;;;;1.55;1.20;;;11.70;52.20;;;;;;6248915;23;20191;-91
2021/05/15 02:32:09;;;;;;;1.30;1.20;;;11.60;51.60;;;;;;6248652;23;20150;-92
2021/05/15 02:34:35;;;;;;;2.13;1.50;;;11.60;51.20;;;;;;6248609;23;20149;-92
2021/05/15 02:37:03;;;;;;;1.10;0.80;;;11.70;51.20;;;;;;6248883;23;20377;-92
2021/05/15 02:39:28;;;;;;;2.97;1.50;;;11.70;51.40;;;;;;6247707;23;20150;-92
2021/05/15 02:42:10;;;;;;;1.37;1.27;;;11.60;51.30;;;;;;6247374;23;20595;-93
2021/05/15 02:44:35;;;;;;;3.15;1.55;;;11.50;51.40;;;;;;6249965;22;20134;-92
2021/05/15 02:47:14;;;;;;;1.63;1.53;;;11.40;51.30;;;;;;6248226;23;20156;-92
2021/05/15 02:49:39;;;;;;;1.60;1.48;;;11.50;51.40;;;;;;6247788;23;20605;-91
2021/05/15 02:52:07;;;;;;;2.60;1.40;;;11.50;51.30;;;;;;6248207;23;20177;-92
2021/05/15 02:54:33;;;;;;;3.67;1.30;;;11.80;52.00;;;;;;6249080;23;20150;-90
2021/05/15 02:57:00;;;;;;;1.30;1.20;;;11.40;51.50;;;;;;6247983;23;20161;-91
2021/05/15 02:59:26;;;;;;;2.38;1.40;;;11.50;51.10;;;;;;6248537;23;20179;-92
2021/05/15 03:01:57;;;;;;;2.20;1.00;;;11.70;50.90;;;;;;6247777;23;20188;-93
2021/05/15 03:04:23;;;;;;;1.60;1.15;;;11.30;50.20;;;;;;6247832;23;20153;-90
2021/05/15 03:06:49;;;;;;;1.20;1.07;;;11.40;50.00;;;;;;6248207;23;20196;-92
2021/05/15 03:09:14;;;;;;;1.30;1.03;;;11.50;50.10;;;;;;6247977;23;20184;-92
2021/05/15 03:11:58;;;;;;;1.53;1.20;;;11.50;50.30;;;;;;6247859;23;20142;-92
2021/05/15 03:14:38;;;;;;;1.77;1.15;;;11.30;50.20;;;;;;6247627;23;20196;-92
2021/05/15 03:17:03;;;;;;;1.38;1.27;;;11.20;50.20;;;;;;6247872;23;20146;-90
2021/05/15 03:19:42;;;;;;;1.20;1.10;;;11.10;51.00;;;;;;6247905;23;20157;-92
2021/05/15 03:22:09;;;;;;;1.23;1.13;;;11.20;50.90;;;;;;6247103;23;20481;-91
2021/05/15 03:24:53;;;;;;;2.60;1.15;;;11.10;50.70;;;;;;6247300;23;20149;-92
2021/05/15 03:27:19;;;;;;;1.10;1.00;;;11.30;50.80;;;;;;6247500;23;20142;-92
2021/05/15 03:30:06;;;;;;;1.33;1.20;;;11.40;51.00;;;;;;6247640;23;20188;-91
2021/05/15 03:32:32;;;;;;;1.92;1.13;;;11.10;51.00;;;;;;6247299;23;20149;-90
2021/05/15 03:35:13;;;;;;;3.17;1.20;;;11.10;51.00;;;;;;6247510;23;20153;-91
2021/05/15 03:37:39;;;;;;;1.15;0.93;;;11.10;50.70;;;;;;6247640;23;20392;-92
2021/05/15 03:40:15;;;;;;;1.30;1.10;;;11.00;50.60;;;;;;6248617;23;20149;-91
2021/05/15 03:42:41;;;;;;;1.92;1.83;;;11.00;50.80;;;;;;6248160;23;20149;-90
2021/05/15 03:45:13;;;;;;;2.27;1.30;;;10.80;51.30;;;;;;6248256;23;20172;-93
2021/05/15 03:48:06;;;;;;;1.80;1.00;;;10.90;52.40;;;;;;6247835;23;20150;-92
2021/05/15 03:50:32;;;;;;;1.88;1.58;;;11.00;51.70;;;;;;6248228;23;20177;-92
2021/05/15 03:53:00;;;;;;;1.40;1.00;;;10.80;51.80;;;;;;6247646;23;20177;-90
2021/05/15 03:55:25;;;;;;;1.75;0.95;;;11.20;52.40;;;;;;6248077;23;20467;-91
2021/05/15 03:58:19;;;;;;;1.93;1.20;;;11.10;52.40;;;;;;6248849;23;20145;-91
2021/05/15 04:00:45;;;;;;;1.55;1.40;;;11.10;52.00;;;;;;6248660;23;20488;-91
2021/05/15 04:03:10;;;;;;;1.17;1.07;;;11.00;51.40;;;;;;6248579;23;20150;-91
2021/05/15 04:05:45;;;;;;;1.43;1.33;;;11.10;51.90;;;;;;6248433;23;20569;-92
2021/05/15 04:08:11;;;;;;;1.40;1.30;;;11.10;51.40;;;;;;6248966;23;20184;-92
2021/05/15 04:10:37;;;;;;;1.17;1.03;;;11.00;51.40;;;;;;6248760;23;20691;-92
2021/05/15 04:13:52;;;;;;;1.23;1.00;;;10.90;51.30;;;;;;6248817;23;20625;-92
2021/05/15 04:16:43;;;;;;;1.05;0.90;;;11.10;51.40;;;;;;6249159;23;20516;-92
2021/05/15 04:19:03;;;;;;;1.40;1.27;;;11.00;51.40;;;;;;6248292;23;20154;-91
2021/05/15 04:21:29;;;;;;;2.30;0.93;;;11.20;51.50;;;;;;6248040;23;20471;-92
2021/05/15 04:23:55;;;;;;;1.33;0.93;;;11.10;51.40;;;;;;6247135;23;20161;-93
2021/05/15 04:26:20;;;;;;;1.23;1.03;;;11.20;51.60;;;;;;6247648;23;20161;-92
2021/05/15 04:28:49;;;;;;;1.50;1.10;;;11.70;52.10;;;;;;6248015;23;20153;-91
2021/05/15 04:31:15;;;;;;;1.23;1.13;;;11.60;52.00;;;;;;6247918;23;20235;-92
2021/05/15 04:33:49;;;;;;;1.37;1.27;;;11.70;51.90;;;;;;6247999;23;20160;-92
2021/05/15 04:36:15;;;;;;;1.70;1.52;;;11.50;51.30;;;;;;6248028;23;20149;-93
2021/05/15 04:38:43;;;;;;;0.93;0.90;;;11.30;51.00;;;;;;6247959;23;20160;-92
2021/05/15 04:41:09;;;;;;;0.95;0.88;;;11.40;51.10;;;;;;6247490;23;20157;-93
2021/05/15 04:43:55;;;;;;;1.33;1.23;;;11.40;52.00;;;;;;6247772;23;20150;-93
2021/05/15 04:46:20;;;;;;;2.35;1.40;;;11.10;51.20;;;;;;6248258;23;20641;-92
2021/05/15 04:48:56;;;;;;;1.40;0.90;;;11.60;51.80;;;;;;6247619;23;20153;-93
2021/05/15 04:51:22;;;;;;;1.33;1.10;;;11.80;52.00;;;;;;6247801;23;20157;-92
2021/05/15 04:53:47;;;;;;;4.15;1.60;;;11.70;51.90;;;;;;6248674;22;20130;-90
2021/05/15 04:56:15;;;;;;;1.00;0.90;;;12.20;52.20;;;;;;6249512;23;20158;-91
2021/05/15 04:58:41;;;;;;;3.97;1.60;;;12.00;51.40;;;;;;6249966;23;20154;-90
2021/05/15 05:01:11;;;;;;;3.00;1.80;;;12.40;51.40;;;;;;6249376;23;20160;-90
2021/05/15 05:03:37;;;;;;;4.23;1.40;;;12.20;51.00;;;;;;6249955;23;20726;-90
2021/05/15 05:06:21;;;;;;;1.90;1.33;;;12.10;50.70;;;;;;6250161;23;20380;-90
2021/05/15 05:08:47;;;;;;;1.88;1.13;;;12.20;50.30;;;;;;6249473;23;20764;-91
2021/05/15 05:11:31;;;;;;;1.20;1.10;;;12.60;50.10;;;;;;6249708;23;20156;-91
2021/05/15 05:14:09;;;;;;;1.27;1.17;;;12.30;49.90;;;;;;6250448;23;20189;-90
2021/05/15 05:16:35;;;;;;;1.77;1.53;;;12.40;50.30;;;;;;6249959;23;20847;-90
2021/05/15 05:19:18;;;;;;;2.60;1.50;;;12.10;49.80;;;;;;6251688;22;20357;-90
2021/05/15 05:21:44;;;;;;;1.17;1.07;;;12.70;50.10;;;;;;6250110;23;20150;-90
2021/05/15 05:24:16;;;;;;;1.17;1.07;;;13.00;50.20;;;;;;6250279;23;20383;-90
2021/05/15 05:26:42;;;;;;;1.60;1.50;;;13.40;49.70;;;;;;6250313;23;20228;-90
2021/05/15 05:29:14;;;;;;;1.37;1.27;;;13.80;49.00;;;;;;6249632;23;20803;-90
2021/05/15 05:31:43;;;;;;;1.97;1.10;;;14.00;47.30;;;;;;6249726;23;20161;-91
2021/05/15 05:34:09;;;;;;;1.30;1.20;;;14.30;46.80;;;;;;6250931;23;20377;-91
2021/05/15 05:36:58;;;;;;;2.40;1.20;;;14.30;45.70;;;;;;6250240;23;20373;-90
2021/05/15 05:39:23;;;;;;;1.50;1.10;;;14.80;44.80;;;;;;6249225;23;20369;-91
2021/05/15 05:41:52;;;;;;;1.90;1.10;;;15.40;44.40;;;;;;6249771;23;20444;-91
2021/05/15 05:44:18;;;;;;;2.17;0.80;;;15.80;43.90;;;;;;6249031;23;20153;-91
2021/05/15 05:46:58;;;;;;;1.93;1.00;;;16.40;42.70;;;;;;6248846;23;20364;-90
2021/05/15 05:49:23;;;;;;;4.40;1.37;;;16.80;39.60;;;;;;6248443;23;20177;-90
2021/05/15 05:52:04;;;;;;;1.10;1.00;;;17.10;38.90;;;;;;6249351;23;20869;-91
2021/05/15 05:54:30;;;;;;;4.50;1.40;;;17.50;37.80;;;;;;6250784;22;20727;-91
2021/05/15 05:56:55;;;;;;;2.23;1.30;;;17.40;36.60;;;;;;6249116;23;20373;-90
2021/05/15 05:59:26;;;;;;;1.50;1.40;;;17.50;36.50;;;;;;6248581;23;20150;-90
2021/05/15 06:01:52;;;;;;;1.53;1.07;;;17.60;36.50;;;;;;6248158;23;20150;-91
2021/05/15 06:04:20;;;;;;;1.67;1.10;;;17.60;36.40;;;;;;6248874;23;20459;-91
2021/05/15 06:06:46;;;;;;;1.90;1.57;;;17.40;36.90;;;;;;6248662;23;20177;-92
2021/05/15 06:09:24;;;;;;;3.83;1.13;;;17.20;37.10;;;;;;6249781;23;20421;-91
2021/05/15 06:11:49;;;;;;;1.50;1.40;;;17.20;37.00;;;;;;6249327;23;20446;-90
2021/05/15 06:14:15;;;;;;;3.10;1.77;;;17.40;36.60;;;;;;6247753;23;20435;-89
2021/05/15 06:17:09;;;;;;;1.50;1.40;;;17.40;37.40;;;;;;6250432;23;20517;-89
2021/05/15 06:19:34;;;;;;;3.00;1.57;;;17.90;36.20;;;;;;6251611;23;20176;-90
2021/05/15 06:22:00;;;;;;;2.13;1.40;;;18.30;34.30;;;;;;6250933;23;20365;-89
2021/05/15 06:24:26;;;;;;;1.37;1.20;;;18.50;33.30;;;;;;6250561;23;20152;-89
2021/05/15 06:26:52;;;;;;;2.27;1.20;;;18.40;33.20;;;;;;6249940;23;20150;-89
2021/05/15 06:29:33;;;;;;;1.30;1.20;;;18.60;33.90;;;;;;6249868;23;20492;-90
2021/05/15 06:31:59;;;;;;;1.10;1.00;;;19.40;33.70;;;;;;6250134;23;20149;-89
2021/05/15 06:34:32;;;;;;;1.13;1.00;;;19.40;33.10;;;;;;6249840;23;20368;-89
2021/05/15 06:36:57;;;;;;;1.63;1.20;;;19.70;31.50;;;;;;6249579;23;20243;-89
2021/05/15 06:39:24;;;;;;;0.93;0.87;;;19.70;31.00;;;;;;6248594;23;20369;-91
2021/05/15 06:41:50;;;;;;;1.83;0.90;;;19.40;30.70;;;;;;6249171;23;20157;-90
2021/05/15 06:44:22;;;;;;;1.00;0.90;;;20.20;31.10;;;;;;6247913;23;20376;-90
2021/05/15 06:46:47;;;;;;;1.07;0.97;;;20.10;30.40;;;;;;6248226;23;20848;-90
2021/05/15 06:49:26;;;;;;;1.57;0.93;;;20.30;30.40;;;;;;6248528;23;20420;-89
2021/05/15 06:51:52;;;;;;;1.00;0.87;;;20.20;29.60;;;;;;6248679;23;20163;-93
2021/05/15 06:55:14;;;;;;;3.77;1.77;;;20.20;29.80;;;;;;6257894;23;20352;-92
2021/05/15 06:58:19;;;;;;;1.13;0.90;;;20.30;29.00;;;;;;6257046;23;20347;-92
2021/05/15 07:00:45;;;;;;;1.63;1.37;;;20.40;29.70;;;;;;6255539;23;20380;-94
2021/05/15 07:03:47;;;;;;;1.67;0.80;;;20.50;29.40;;;;;;6251786;23;20378;-93
2021/05/15 07:06:13;;;;;;;1.10;1.00;;;20.50;28.80;;;;;;6251928;23;20203;-93
2021/05/15 07:08:47;;;;;;;3.33;0.97;;;20.20;29.10;;;;;;6254411;23;20380;-93
2021/05/15 07:11:16;;;;;;;1.83;1.00;;;20.20;29.70;;;;;;6253112;23;20217;-93
2021/05/15 07:13:55;;;;;;;0.93;0.83;;;20.30;30.30;;;;;;6227430;23;20402;-89
2021/05/15 07:16:21;;;;;;;1.70;0.77;;;20.40;30.00;;;;;;6251964;23;20388;-89
2021/05/15 07:19:10;;;;;;;1.20;1.10;;;20.60;29.10;;;;;;6249909;23;20380;-90
2021/05/15 07:21:37;;;;;;;1.00;0.90;;;20.70;28.80;;;;;;6251060;23;20146;-89
2021/05/15 07:24:03;;;;;;;1.10;0.87;;;20.50;28.00;;;;;;6251635;23;20431;-90
2021/05/15 07:26:43;;;;;;;1.17;1.07;;;20.20;28.80;;;;;;6249743;23;20361;-92
2021/05/15 07:29:09;;;;;;;3.50;1.00;;;19.30;29.80;;;;;;6249817;23;20486;-92
2021/05/15 07:31:36;;;;;;;1.70;0.80;;;18.70;30.70;;;;;;6250371;23;20347;-90
2021/05/15 07:34:02;;;;;;;1.20;0.70;;;18.20;31.40;;;;;;6257346;23;20173;-95
2021/05/15 07:36:29;;;;;;;1.30;1.00;;;17.90;32.50;;;;;;6258250;23;20423;-95
2021/05/15 07:42:17;;;;;;;1.57;0.90;;;18.50;32.80;;;;;;6261457;23;20340;-95
2021/05/15 07:48:05;;;;;;;0.83;0.73;;;18.20;32.90;;;;;;6263455;23;20344;-90
2021/05/15 07:54:12;;;;;;;1.50;0.80;;;18.40;32.80;;;;;;6256829;23;20332;-92
2021/05/15 08:00:02;;;;;;;0.97;0.90;;;17.60;34.20;;;;;;6257415;23;20344;-92
2021/05/15 08:05:50;;;;;;;1.47;1.00;;;16.90;36.00;;;;;;6259896;23;20343;-92
2021/05/15 08:11:38;;;;;;;1.13;1.00;;;17.20;37.00;;;;;;6261026;23;20195;-92
2021/05/15 08:25:13;;;;;;;1.30;0.80;;;18.10;35.00;;;;;;6253596;23;20431;-93
2021/05/15 08:27:41;;;;;;;1.30;0.70;;;17.70;34.20;;;;;;6228293;23;20376;-89
2021/05/15 08:30:09;;;;;;;0.70;0.70;;;17.80;32.20;;;;;;6227390;23;20408;-91
2021/05/15 08:35:57;;;;;;;0.97;0.70;;;18.00;32.90;;;;;;6253326;23;20141;-92
2021/05/15 08:38:46;;;;;;;1.50;0.90;;;17.80;32.10;;;;;;6226693;23;20355;-90
2021/05/15 08:41:13;;;;;;;1.90;1.00;;;17.80;32.60;;;;;;6226105;23;20596;-91
2021/05/15 08:43:42;;;;;;;3.17;0.90;;;17.80;32.80;;;;;;6228181;23;20412;-91
2021/05/15 08:49:32;;;;;;;1.97;0.83;;;18.30;30.90;;;;;;6255601;23;20462;-89
2021/05/15 08:55:25;;;;;;;1.23;0.63;;;19.30;29.50;;;;;;6257630;23;20506;-90
2021/05/15 08:58:03;;;;;;;1.03;0.80;;;19.60;29.20;;;;;;6227807;23;20358;-89
2021/05/15 09:00:33;;;;;;;1.17;0.70;;;19.80;28.60;;;;;;6229265;23;20826;-88
2021/05/15 09:03:03;;;;;;;1.27;1.00;;;19.80;28.70;;;;;;6229254;23;20519;-91
2021/05/15 09:08:51;;;;;;;1.67;0.80;;;19.10;28.50;;;;;;6254175;23;20323;-90
2021/05/15 09:14:39;;;;;;;1.03;0.93;;;18.90;29.30;;;;;;6254712;23;20137;-90
2021/05/15 09:17:32;;;;;;;2.47;1.17;;;18.80;30.20;;;;;;6228788;23;20415;-91
2021/05/15 09:19:57;;;;;;;1.10;0.93;;;18.80;29.90;;;;;;6260292;23;20196;-94
2021/05/15 09:22:39;;;;;;;5.87;1.60;;;18.90;29.60;;;;;;6264237;22;20892;-96
2021/05/15 10:35:08;;;;;;;3.30;1.40;;;19.70;29.70;;;;;;6221924;22;20430;-89
2021/05/15 10:37:42;;;;;;;1.40;1.20;;;19.80;29.10;;;;;;6195090;23;20373;-88
2021/05/15 10:40:16;;;;;;;1.10;1.00;;;19.70;28.60;;;;;;6194192;23;20373;-88
2021/05/15 10:42:42;;;;;;;2.20;1.30;;;20.00;29.10;;;;;;6194083;23;20455;-88
2021/05/15 10:45:09;;;;;;;2.23;1.30;;;19.90;28.40;;;;;;6193757;23;20817;-89
2021/05/15 10:47:42;;;;;;;2.97;1.27;;;19.60;27.10;;;;;;6196409;23;20166;-92
2021/05/15 10:50:21;;;;;;;1.50;1.00;;;19.40;28.00;;;;;;6193551;23;20409;-89
2021/05/15 10:52:51;;;;;;;1.70;1.50;;;19.00;28.80;;;;;;6192352;23;20377;-88
2021/05/15 10:55:35;;;;;;;1.63;1.10;;;18.40;33.30;;;;;;6192855;23;20384;-87
2021/05/15 10:58:12;;;;;;;2.63;1.67;;;18.30;37.20;;;;;;6220604;23;20840;-87
2021/05/15 11:00:43;;;;;;;1.20;0.90;;;17.80;38.90;;;;;;6193416;23;20375;-87
2021/05/15 11:03:09;;;;;;;1.77;1.00;;;17.20;39.10;;;;;;6193745;23;20396;-87
2021/05/15 11:05:43;;;;;;;1.63;0.80;;;16.90;39.70;;;;;;6192351;23;20369;-87
2021/05/15 11:08:27;;;;;;;1.33;0.90;;;16.90;38.40;;;;;;6192424;23;20161;-86
2021/05/15 11:10:53;;;;;;;0.97;0.90;;;16.50;39.50;;;;;;6191823;23;20452;-87
2021/05/15 11:13:50;;;;;;;1.00;0.70;;;16.80;39.90;;;;;;6191735;23;20366;-87
2021/05/15 11:16:35;;;;;;;3.43;1.10;;;17.40;41.90;;;;;;6191603;23;20493;-88
2021/05/15 11:19:09;;;;;;;0.70;0.70;;;17.50;42.40;;;;;;6191686;23;20756;-88
2021/05/15 11:21:39;;;;;;;1.50;1.10;;;18.00;39.90;;;;;;6191138;23;20855;-86
2021/05/15 11:24:08;;;;;;;2.23;1.30;;;18.60;39.80;;;;;;6190995;23;20831;-86
2021/05/15 11:26:51;;;;;;;1.93;0.80;;;19.00;35.60;;;;;;6191150;23;20362;-88
2021/05/15 11:29:30;;;;;;;1.57;1.00;;;19.20;33.40;;;;;;6191621;23;20497;-86
2021/05/15 11:32:07;;;;;;;6.57;0.90;;;19.40;32.30;;;;;;6191465;23;20347;-87
2021/05/15 11:34:41;;;;;;;1.23;0.70;;;19.50;32.40;;;;;;6251869;23;20414;-93
2021/05/15 11:37:11;;;;;;;1.37;0.97;;;19.60;30.90;;;;;;6229044;23;20388;-94
2021/05/15 11:40:16;;;;;;;1.73;0.90;;;20.70;30.20;;;;;;6209901;23;20367;-94
2021/05/15 11:42:43;;;;;;;1.50;1.00;;;20.40;30.50;;;;;;6207940;23;20384;-93
2021/05/15 11:45:12;;;;;;;1.20;0.87;;;20.60;30.70;;;;;;6205889;23;20389;-93
2021/05/15 11:47:38;;;;;;;2.00;1.13;;;20.50;30.60;;;;;;6205201;23;20367;-94
2021/05/15 11:50:17;;;;;;;1.80;1.03;;;20.00;29.80;;;;;;6202525;23;20400;-93
2021/05/15 11:52:44;;;;;;;1.80;1.17;;;20.30;31.60;;;;;;6201239;23;20378;-91
2021/05/15 11:55:46;;;;;;;1.40;1.30;;;20.40;31.60;;;;;;6200945;23;20372;-92
2021/05/15 11:58:14;;;;;;;0.80;0.80;;;20.40;31.00;;;;;;6211672;23;20392;-94
2021/05/15 17:22:39;;;;;;;1.20;0.80;;;15.60;38.80;;;;;;6247990;22;20768;-93
2021/05/15 17:25:06;;;;;;;1.63;0.70;;;16.10;38.90;;;;;;6201074;23;20377;-94
2021/05/15 17:27:42;;;;;;;1.00;0.90;;;16.00;38.80;;;;;;6202597;23;20452;-94
2021/05/15 17:30:08;;;;;;;1.10;1.00;;;16.30;38.30;;;;;;6197416;23;20477;-93
2021/05/15 17:32:48;;;;;;;0.83;0.83;;;16.10;38.20;;;;;;6198382;23;20375;-92
2021/05/15 17:35:14;;;;;;;0.97;0.90;;;16.10;38.60;;;;;;6201356;23;20373;-92
2021/05/15 17:37:54;;;;;;;0.80;0.70;;;15.90;38.00;;;;;;6200120;23;20370;-91
2021/05/15 17:40:21;;;;;;;1.83;1.10;;;16.50;37.90;;;;;;6201973;23;20412;-90
2021/05/15 17:46:18;;;;;;;1.10;1.00;;;15.60;38.70;;;;;;6228632;23;20341;-91
2021/05/15 17:48:47;;;;;;;1.10;0.80;;;15.60;38.50;;;;;;6209773;23;20401;-96
2021/05/15 19:07:16;;;;;;;1.60;1.07;;;15.00;37.90;;;;;;6223570;23;20185;-93
2021/05/15 19:09:41;;;;;;;0.97;0.70;;;15.10;37.70;;;;;;6195911;23;20430;-91
2021/05/15 19:12:07;;;;;;;0.60;0.53;;;14.90;37.90;;;;;;6195891;23;20143;-92
2021/05/15 19:14:33;;;;;;;1.10;0.90;;;15.10;38.10;;;;;;6194411;23;20232;-93
2021/05/15 19:21:02;;;;;;;0.90;0.70;;;15.50;38.50;;;;;;6220380;23;20640;-95
2021/05/15 19:23:30;;;;;;;1.00;0.73;;;15.10;37.70;;;;;;6203891;23;20365;-95
2021/05/15 19:25:57;;;;;;;1.80;0.83;;;14.70;37.20;;;;;;6177207;23;20381;-94
2021/05/15 19:28:37;;;;;;;1.30;1.00;;;15.20;38.60;;;;;;6205299;23;20389;-93
2021/05/15 19:31:03;;;;;;;3.03;1.10;;;15.20;37.80;;;;;;6203349;23;20417;-94
2021/05/15 19:33:29;;;;;;;0.80;0.60;;;15.20;37.90;;;;;;6198439;23;20420;-89
2021/05/15 19:35:59;;;;;;;2.03;1.27;;;14.70;38.20;;;;;;6197251;23;20377;-96
2021/05/15 19:39:03;;;;;;;2.47;0.90;;;14.70;38.60;;;;;;6196768;23;20381;-91
2021/05/15 19:41:29;;;;;;;1.47;0.80;;;14.60;38.90;;;;;;6194180;23;20939;-91
2021/05/15 19:44:46;;;;;;;1.77;1.00;;;14.60;39.60;;;;;;6195619;23;20374;-93
2021/05/15 19:47:19;;;;;;;2.10;1.03;;;14.70;40.20;;;;;;6209111;23;20142;-94
2021/05/15 19:49:46;;;;;;;1.10;1.00;;;14.80;40.70;;;;;;6186408;23;20422;-93
2021/05/15 19:52:29;;;;;;;1.00;0.90;;;14.40;39.60;;;;;;6203811;23;20464;-92
2021/05/15 19:54:56;;;;;;;1.00;0.90;;;15.00;40.00;;;;;;6202379;23;20831;-92
2021/05/15 19:58:02;;;;;;;0.80;0.60;;;14.90;39.20;;;;;;6207938;23;20385;-93
2021/05/15 20:00:28;;;;;;;2.20;0.70;;;14.80;40.00;;;;;;6205318;23;20381;-92
2021/05/15 20:03:06;;;;;;;0.70;0.60;;;14.40;41.50;;;;;;6215718;23;20484;-91
2021/05/15 20:05:34;;;;;;;0.70;0.60;;;14.70;40.70;;;;;;6205385;23;20727;-92
2021/05/15 20:11:34;;;;;;;2.10;1.20;;;14.40;41.00;;;;;;6237278;23;20420;-92
2021/05/15 20:14:01;;;;;;;3.70;1.10;;;14.40;41.80;;;;;;6205229;23;20382;-92
2021/05/15 20:16:32;;;;;;;1.70;1.00;;;14.60;41.90;;;;;;6206386;23;20381;-92
2021/05/15 20:19:03;;;;;;;1.67;0.80;;;14.30;43.00;;;;;;6198927;23;20377;-93
2021/05/15 20:22:02;;;;;;;1.73;0.90;;;13.80;43.90;;;;;;6200431;23;20389;-92
2021/05/15 20:24:28;;;;;;;1.83;1.07;;;13.70;44.60;;;;;;6210161;23;20468;-91
2021/05/15 20:26:54;;;;;;;5.60;1.00;;;13.50;45.50;;;;;;6205938;23;20393;-91
2021/05/15 20:29:23;;;;;;;1.10;1.00;;;13.70;45.20;;;;;;6207230;23;20408;-92
2021/05/15 20:31:48;;;;;;;2.27;1.40;;;13.80;45.60;;;;;;6206494;23;20162;-92
2021/05/15 20:34:44;;;;;;;1.40;1.27;;;13.60;45.60;;;;;;6202718;23;20459;-93
2021/05/15 20:37:10;;;;;;;1.83;1.53;;;13.70;44.30;;;;;;6202705;23;20147;-93
2021/05/15 20:42:58;;;;;;;2.17;1.00;;;14.00;43.30;;;;;;6234381;23;20388;-93
2021/05/15 20:45:33;;;;;;;1.23;0.70;;;14.00;43.00;;;;;;6206133;23;20824;-95
2021/05/15 20:48:00;;;;;;;2.27;1.60;;;13.90;43.00;;;;;;6209256;23;20154;-93
2021/05/15 20:50:54;;;;;;;2.43;1.37;;;13.70;43.60;;;;;;6201880;23;20421;-92
2021/05/15 20:53:21;;;;;;;2.50;1.20;;;13.50;44.40;;;;;;6206774;23;20747;-96
2021/05/15 20:55:46;;;;;;;1.63;1.00;;;13.30;45.30;;;;;;6200462;23;20373;-91
2021/05/15 20:59:07;;;;;;;1.57;1.27;;;13.30;45.50;;;;;;6198771;23;20150;-91
2021/05/15 21:01:33;;;;;;;2.73;1.20;;;13.20;45.90;;;;;;6192567;23;20378;-92
2021/05/15 21:03:59;;;;;;;3.60;1.50;;;12.70;46.00;;;;;;6213584;23;20454;-94
2021/05/15 21:06:56;;;;;;;1.80;1.50;;;12.40;45.90;;;;;;6247561;23;20751;-92
2021/05/15 21:09:22;;;;;;;2.85;1.60;;;12.50;46.20;;;;;;6249938;23;20832;-93
2021/05/15 21:11:58;;;;;;;3.65;1.40;;;12.60;46.70;;;;;;6252407;23;20629;-93
2021/05/15 21:14:48;;;;;;;2.93;2.50;;;12.70;46.20;;;;;;6263611;23;20149;-94
2021/05/15 21:17:14;;;;;;;3.00;1.80;;;12.90;45.90;;;;;;6256890;23;20423;-92
2021/05/15 21:20:27;;;;;;;3.40;1.87;;;12.70;45.30;;;;;;6254004;23;20385;-93
2021/05/15 21:22:54;;;;;;;3.42;1.80;;;12.70;45.10;;;;;;6252801;23;20156;-90
2021/05/15 21:25:34;;;;;;;3.03;1.48;;;12.70;45.30;;;;;;6254365;23;20497;-91
2021/05/15 21:28:01;;;;;;;1.13;1.00;;;12.70;45.60;;;;;;6224465;23;20155;-89
2021/05/15 21:30:29;;;;;;;4.67;1.67;;;12.40;45.40;;;;;;6221934;23;20425;-93
2021/05/15 21:32:55;;;;;;;2.40;1.10;;;12.70;45.30;;;;;;6225701;23;20440;-93
2021/05/15 21:35:21;;;;;;;2.20;1.27;;;12.60;45.10;;;;;;6221987;23;20388;-88
2021/05/15 21:37:47;;;;;;;1.87;1.30;;;12.70;44.80;;;;;;6226447;23;20150;-92
2021/05/15 21:40:22;;;;;;;2.70;1.60;;;12.80;44.70;;;;;;6236015;23;20150;-93
2021/05/15 21:42:49;;;;;;;3.28;1.67;;;12.80;44.40;;;;;;6226575;23;20384;-91
2021/05/15 21:45:31;;;;;;;2.35;1.73;;;12.70;44.00;;;;;;6226470;23;20154;-92
2021/05/15 21:47:58;;;;;;;1.97;1.20;;;12.70;44.10;;;;;;6224101;23;20150;-93
2021/05/15 21:50:32;;;;;;;2.37;1.50;;;12.80;44.50;;;;;;6225231;23;20434;-92
2021/05/15 21:52:58;;;;;;;1.05;0.70;;;12.50;44.70;;;;;;6219630;23;20381;-92
2021/05/15 21:55:46;;;;;;;1.45;0.90;;;12.60;44.70;;;;;;6219316;23;20154;-92
2021/05/15 21:58:11;;;;;;;2.10;1.10;;;12.60;44.70;;;;;;6217383;23;20473;-92
2021/05/15 22:01:15;;;;;;;2.17;1.10;;;12.40;45.40;;;;;;6219017;23;20582;-91
2021/05/15 22:03:42;;;;;;;1.65;1.50;;;12.50;45.60;;;;;;6217901;23;20252;-89
2021/05/15 22:06:08;;;;;;;2.10;1.10;;;12.20;45.40;;;;;;6219489;23;20178;-92
2021/05/15 22:09:08;;;;;;;2.70;1.20;;;12.20;46.10;;;;;;6218037;23;20150;-92
2021/05/15 22:11:34;;;;;;;0.80;0.70;;;12.20;46.00;;;;;;6218458;23;20884;-92